Meath Environmental Platform

Observations

Time Sensor AQI SAQ Temp °C Hum % Pres Pa CO μg/m³ H₂S μg/m³ NO μg/m³ NO₂ μg/m³ O₃ μg/m³ SO₂ μg/m³ CO₂e PPM VOC PPM PM1 μg/m³ PM2.5 μg/m³ PM4 μg/m³ PM10 μg/m³ TPS µm
Thursday 13 August 2026
09:15 Trim Market St 2 29.8 51 55,970 0.13 0 0.84 11.9 5.94 0 0 2.91 3.1
09:15 Trim Patrick St 1 29.2 54 72,491 0 0 1.08 7.67 18.28 11.16 3.71 8.45 9.29
09:14 Trim Market St 2 29.8 51 56,007 0.37 0 0.82 12.09 10.44 0 0.71 3.42 3.84
09:14 Trim Patrick St 1 29.2 54 72,626 0 0 1.08 8.32 21.82 11.22 4.57 9.18 10.1
09:13 Trim Market St 2 29.7 52 56,066 0.57 0 0.83 11.06 0 0 1.43 3.92 4.58
09:13 Trim Patrick St 1 29.1 54 72,774 0 0 1.12 7.39 11.82 10.79 4.57 9.17 10.09
09:12 Trim Market St 2 29.7 52 56,196 0.12 0 0.88 12.21 0.61 0 2.14 4.42 5.32
09:12 Trim Patrick St 1 29.1 54 73,008 0 0 1.11 7.3 21.89 11.1 3.71 8.4 9.24
09:11 Trim Market St 2 29.7 52 56,357 0.01 0 0.87 11.04 10.23 0 1.43 3.9 5.33
09:11 Trim Patrick St 1 29.1 55 73,318 0 0 1.11 7.37 14.17 10.9 3.71 9.14 10.05
09:10 Trim Market St 2 29.6 52 56,518 0.04 0 0.91 11.97 0 0 1.43 3.37 3.87
09:10 Trim Patrick St 1 29.1 54 73,677 0 0 1.11 8.38 16.11 10.8 2.86 7.64 8.4
09:09 Trim Market St 2 29.6 53 56,709 0.06 0 0.99 11.92 1.92 0 2.14 4.38 5.34
09:09 Trim Patrick St 1 29 54 73,909 0.01 0 1.11 10.62 4.27 10.54 4.57 8.39 9.23
09:08 Trim Patrick St 1 28.9 55 74,157 0.04 0 1.08 11.43 10.24 9.95 3.71 9.11 10.02
09:07 Trim Market St 2 29.4 53 56,963 0.06 0 1.14 12.08 0 0 0.71 3.33 3.9
09:07 Trim Patrick St 1 28.8 55 74,359 0.01 0 1.09 9.75 10.67 10.34 2.86 7.6 8.36
09:06 Trim Market St 2 29.3 54 57,168 0.08 0 1.17 13.58 2.84 0 0.71 3.32 4.63
09:06 Trim Patrick St 1 28.7 56 74,510 0.02 0 1.13 8.24 15.22 10.29 4.57 9.07 9.98
09:05 Trim Market St 2 29.3 54 57,277 0.07 0 1.13 13.42 22.08 0 1.43 3.31 4.64